createdAt,value
2019-03-17T00:01:24.247Z,67.80
2019-03-17T00:03:50.393Z,63.97
2019-03-17T00:06:16.238Z,66.37
2019-03-17T00:08:42.047Z,60.87
2019-03-17T00:11:07.947Z,65.27
2019-03-17T00:13:33.763Z,65.80
2019-03-17T00:15:59.596Z,60.83
2019-03-17T00:18:25.545Z,67.87
2019-03-17T00:20:54.495Z,62.07
2019-03-17T00:23:20.362Z,67.97
2019-03-17T00:25:46.221Z,64.97
2019-03-17T00:28:12.041Z,66.00
2019-03-17T00:30:39.607Z,67.70
2019-03-17T00:33:05.422Z,62.97
2019-03-17T00:35:31.291Z,67.43
2019-03-17T00:37:57.138Z,62.97
2019-03-17T00:40:22.979Z,65.43
2019-03-17T00:42:48.914Z,59.40
2019-03-17T00:45:14.954Z,61.57
2019-03-17T00:47:42.731Z,68.47
2019-03-17T00:50:09.753Z,58.63
2019-03-17T00:52:35.790Z,62.03
2019-03-17T00:55:01.828Z,62.27
2019-03-17T00:57:28.149Z,65.00
2019-03-17T00:59:54.089Z,64.80
2019-03-17T01:02:19.996Z,65.23
2019-03-17T01:04:55.643Z,66.17
2019-03-17T01:07:14.993Z,64.27
2019-03-17T01:09:40.810Z,70.97
2019-03-17T01:12:06.806Z,70.80
2019-03-17T01:14:32.646Z,65.13
2019-03-17T01:16:58.582Z,73.30
2019-03-17T01:19:24.603Z,72.77
2019-03-17T01:21:50.458Z,64.60
2019-03-17T01:24:16.291Z,66.93
2019-03-17T01:26:42.279Z,65.30
2019-03-17T01:29:08.140Z,67.53
2019-03-17T01:31:34.109Z,69.13
2019-03-17T01:34:00.013Z,71.83
2019-03-17T01:36:25.975Z,65.27
2019-03-17T01:38:51.896Z,70.43
2019-03-17T01:41:17.937Z,65.37
2019-03-17T01:43:43.888Z,67.77
2019-03-17T01:46:09.826Z,73.40
2019-03-17T01:48:35.680Z,70.97
2019-03-17T01:51:01.564Z,73.93
2019-03-17T01:53:27.455Z,69.33
2019-03-17T01:55:53.410Z,75.47
2019-03-17T01:58:19.405Z,65.70
2019-03-17T02:00:45.349Z,64.07
2019-03-17T02:03:11.317Z,67.80
2019-03-17T02:05:37.216Z,71.23
2019-03-17T02:08:03.066Z,65.63
2019-03-17T02:10:29.086Z,67.53
2019-03-17T02:12:55.026Z,62.33
2019-03-17T02:15:21.160Z,64.00
2019-03-17T02:17:47.044Z,60.33
2019-03-17T02:20:12.975Z,63.87
2019-03-17T02:22:38.919Z,66.43
2019-03-17T02:25:05.410Z,62.77
2019-03-17T02:27:31.234Z,64.97
2019-03-17T02:29:57.101Z,67.23
2019-03-17T02:32:23.047Z,65.37
2019-03-17T02:34:50.780Z,69.80
2019-03-17T02:37:16.713Z,64.03
2019-03-17T02:39:42.720Z,64.60
2019-03-17T02:42:08.675Z,70.07
2019-03-17T02:44:34.508Z,66.00
2019-03-17T02:47:00.353Z,71.07
2019-03-17T02:49:26.255Z,65.50
2019-03-17T02:51:52.196Z,67.33
2019-03-17T02:54:18.034Z,72.30
2019-03-17T02:56:43.929Z,72.17
2019-03-17T02:59:09.773Z,74.53
2019-03-17T03:01:35.736Z,71.53
2019-03-17T03:04:01.740Z,69.00
2019-03-17T03:06:27.694Z,70.40
2019-03-17T03:08:53.627Z,72.87
2019-03-17T03:11:19.532Z,68.03
2019-03-17T03:13:45.354Z,68.33
2019-03-17T03:16:11.306Z,80.40
2019-03-17T03:18:37.441Z,72.93
2019-03-17T03:21:03.381Z,69.70
2019-03-17T03:23:29.215Z,72.10
2019-03-17T03:25:55.064Z,70.47
2019-03-17T03:28:21.055Z,78.07
2019-03-17T03:30:47.013Z,73.27
2019-03-17T03:33:12.933Z,75.27
2019-03-17T03:35:38.991Z,80.87
2019-03-17T03:38:04.905Z,75.77
2019-03-17T03:40:31.132Z,70.80
2019-03-17T03:42:57.879Z,75.13
2019-03-17T03:45:23.890Z,81.03
2019-03-17T03:47:50.106Z,79.00
2019-03-17T03:50:16.259Z,74.83
2019-03-17T03:52:42.117Z,79.37
2019-03-17T03:55:08.451Z,74.33
2019-03-17T03:57:34.565Z,77.63
2019-03-17T04:00:02.128Z,79.03
2019-03-17T04:02:28.178Z,74.67
2019-03-17T04:04:54.072Z,73.43
2019-03-17T04:07:19.896Z,78.67
2019-03-17T04:09:45.945Z,76.90
2019-03-17T04:12:11.903Z,72.97
2019-03-17T04:14:37.779Z,79.10
2019-03-17T04:17:03.606Z,72.17
2019-03-17T04:19:29.549Z,69.37
2019-03-17T04:21:55.413Z,69.17
2019-03-17T04:24:21.250Z,76.67
2019-03-17T04:26:47.085Z,80.17
2019-03-17T04:29:13.084Z,75.90
2019-03-17T04:31:38.897Z,76.57
2019-03-17T04:34:04.820Z,72.27
2019-03-17T04:36:40.056Z,81.47
2019-03-17T04:38:58.543Z,65.33
2019-03-17T04:41:24.475Z,66.83
2019-03-17T04:43:50.354Z,74.37
2019-03-17T04:46:16.958Z,68.03
2019-03-17T04:48:43.129Z,67.33
2019-03-17T04:51:09.301Z,67.70
2019-03-17T04:53:35.113Z,73.87
2019-03-17T04:56:00.956Z,76.43
2019-03-17T04:58:26.882Z,80.70
2019-03-17T05:00:52.863Z,82.17
2019-03-17T05:03:18.841Z,75.33
2019-03-17T05:05:44.735Z,71.17
2019-03-17T05:08:10.566Z,85.27
2019-03-17T05:10:36.621Z,77.07
2019-03-17T05:13:02.673Z,79.50
2019-03-17T05:15:28.521Z,79.93
2019-03-17T05:17:54.607Z,88.97
2019-03-17T05:20:20.412Z,82.97
2019-03-17T05:22:46.393Z,85.87
2019-03-17T05:25:12.361Z,80.13
2019-03-17T05:27:38.593Z,83.17
2019-03-17T05:30:07.670Z,80.30
2019-03-17T05:32:33.507Z,82.03
2019-03-17T05:34:59.341Z,87.07
2019-03-17T05:37:25.247Z,83.40
2019-03-17T05:39:51.176Z,87.77
2019-03-17T05:42:17.145Z,77.90
2019-03-17T05:44:42.962Z,75.23
2019-03-17T05:47:08.807Z,77.87
2019-03-17T05:49:34.716Z,80.37
2019-03-17T05:52:00.564Z,74.63
2019-03-17T05:54:26.380Z,71.40
2019-03-17T05:56:52.341Z,73.17
2019-03-17T05:59:19.631Z,70.30
2019-03-17T06:01:45.698Z,76.07
2019-03-17T06:04:11.551Z,75.37
2019-03-17T06:06:40.979Z,73.33
2019-03-17T06:09:06.996Z,73.80
2019-03-17T06:11:32.851Z,70.63
2019-03-17T06:13:58.813Z,69.37
2019-03-17T06:16:24.692Z,73.93
2019-03-17T06:18:50.649Z,71.60
2019-03-17T06:21:16.490Z,69.13
2019-03-17T06:23:42.374Z,80.00
2019-03-17T06:26:08.233Z,69.03
2019-03-17T06:28:34.290Z,74.17
2019-03-17T06:31:00.243Z,67.67
2019-03-17T06:33:26.077Z,70.97
2019-03-17T06:35:52.008Z,69.60
2019-03-17T06:38:18.128Z,83.43
2019-03-17T06:40:43.945Z,68.17
2019-03-17T06:43:09.880Z,67.47
2019-03-17T06:45:35.882Z,72.03
2019-03-17T06:48:01.720Z,68.57
2019-03-17T06:50:27.560Z,71.53
2019-03-17T06:52:53.848Z,68.67
2019-03-17T06:55:19.807Z,71.73
2019-03-17T06:57:45.640Z,69.37
2019-03-17T07:00:12.749Z,72.17
2019-03-17T07:02:38.593Z,68.17
2019-03-17T07:05:06.037Z,70.67
2019-03-17T07:07:43.377Z,68.67
2019-03-17T07:09:59.838Z,71.17
2019-03-17T07:12:25.642Z,66.77
2019-03-17T07:14:51.721Z,69.30
2019-03-17T07:17:19.352Z,72.17
2019-03-17T07:19:45.374Z,78.20
2019-03-17T07:22:12.013Z,76.50
2019-03-17T07:24:37.958Z,78.53
2019-03-17T07:27:03.844Z,71.33
2019-03-17T07:29:29.696Z,79.87
2019-03-17T07:31:55.540Z,79.10
2019-03-17T07:34:21.581Z,75.83
2019-03-17T07:36:47.509Z,90.80
2019-03-17T07:39:13.335Z,84.63
2019-03-17T07:41:39.222Z,90.97
2019-03-17T07:44:05.255Z,87.70
2019-03-17T07:46:31.111Z,80.17
2019-03-17T07:48:56.973Z,82.20
2019-03-17T07:51:22.802Z,86.10
2019-03-17T07:53:48.693Z,83.67
2019-03-17T07:56:14.545Z,85.87
2019-03-17T07:58:40.481Z,88.33
2019-03-17T08:01:06.346Z,83.53
2019-03-17T08:03:32.292Z,86.77
2019-03-17T08:05:58.259Z,91.50
2019-03-17T08:08:24.190Z,79.67
2019-03-17T08:10:49.966Z,90.10
2019-03-17T08:13:15.808Z,76.90
2019-03-17T08:15:41.754Z,83.60
2019-03-17T08:18:07.585Z,78.10
2019-03-17T08:20:33.437Z,77.87
2019-03-17T08:22:59.339Z,76.57
2019-03-17T08:25:25.199Z,68.50
2019-03-17T08:27:51.035Z,77.03
2019-03-17T08:30:17.046Z,68.97
2019-03-17T08:32:42.888Z,52.03
2019-03-17T08:35:09.205Z,50.53
2019-03-17T08:37:35.109Z,44.97
2019-03-17T08:40:01.171Z,53.47
2019-03-17T08:42:27.023Z,48.50
2019-03-17T08:44:53.020Z,48.07
2019-03-17T08:47:18.969Z,48.07
2019-03-17T08:49:44.796Z,45.93
2019-03-17T08:52:10.766Z,49.53
2019-03-17T08:54:36.604Z,43.20
2019-03-17T08:57:02.622Z,45.60
2019-03-17T08:59:28.479Z,45.80
2019-03-17T09:01:54.313Z,45.80
2019-03-17T09:04:20.270Z,43.50
2019-03-17T09:06:49.406Z,50.67
2019-03-17T09:09:17.354Z,47.00
2019-03-17T09:11:43.724Z,45.97
2019-03-17T09:14:09.614Z,52.03
2019-03-17T09:16:35.623Z,53.00
2019-03-17T09:19:01.576Z,46.67
2019-03-17T09:21:27.392Z,45.47
2019-03-17T09:23:53.379Z,41.00
2019-03-17T09:26:19.318Z,46.30
2019-03-17T09:28:45.170Z,47.33
2019-03-17T09:31:11.016Z,45.67
2019-03-17T09:33:36.862Z,44.80
2019-03-17T09:36:02.843Z,47.87
2019-03-17T09:38:28.806Z,45.70
2019-03-17T09:40:54.651Z,44.23
2019-03-17T09:43:21.520Z,48.33
2019-03-17T09:45:47.315Z,46.20
2019-03-17T09:48:13.191Z,44.00
2019-03-17T09:50:39.641Z,43.10
2019-03-17T09:53:05.572Z,45.23
2019-03-17T09:55:31.407Z,48.03
2019-03-17T09:57:57.271Z,43.47
2019-03-17T10:00:23.136Z,40.77
2019-03-17T10:02:48.999Z,42.13
2019-03-17T10:05:15.043Z,45.13
2019-03-17T10:07:40.999Z,45.37
2019-03-17T10:10:16.285Z,45.60
2019-03-17T10:12:42.203Z,40.53
2019-03-17T10:15:11.873Z,44.13
2019-03-17T10:17:37.817Z,42.80
2019-03-17T10:20:12.310Z,47.67
2019-03-17T10:22:40.681Z,45.60
2019-03-17T10:25:08.642Z,45.80
2019-03-17T10:27:34.438Z,47.63
2019-03-17T10:30:00.731Z,46.43
2019-03-17T10:32:26.568Z,44.77
2019-03-17T10:34:52.457Z,37.50
2019-03-17T10:37:18.455Z,47.07
2019-03-17T10:39:44.317Z,45.90
2019-03-17T10:42:10.147Z,38.83
2019-03-17T10:44:36.053Z,51.17
2019-03-17T10:47:01.888Z,46.93
2019-03-17T10:49:27.706Z,42.70
2019-03-17T10:51:53.581Z,43.43
2019-03-17T10:54:19.512Z,45.07
2019-03-17T10:56:45.404Z,43.70
2019-03-17T10:59:11.257Z,47.07
2019-03-17T11:01:37.087Z,43.67
2019-03-17T11:04:03.331Z,49.20
2019-03-17T11:06:29.259Z,43.47
2019-03-17T11:08:55.143Z,45.67
2019-03-17T11:11:21.025Z,44.13
2019-03-17T11:13:46.853Z,44.17
2019-03-17T11:16:12.706Z,45.00
2019-03-17T11:18:39.608Z,49.97
2019-03-17T11:21:05.451Z,49.33
2019-03-17T11:23:31.290Z,43.87
2019-03-17T11:25:57.173Z,48.13
2019-03-17T11:28:23.116Z,47.03
2019-03-17T11:30:56.727Z,46.57
2019-03-17T11:33:22.571Z,46.47
2019-03-17T11:35:48.489Z,44.47
2019-03-17T11:38:14.336Z,44.30
2019-03-17T11:40:40.170Z,49.07
2019-03-17T11:43:06.962Z,49.30
2019-03-17T11:45:32.893Z,44.87
2019-03-17T11:47:58.741Z,45.60
2019-03-17T11:50:24.811Z,45.40
2019-03-17T11:52:50.858Z,44.73
2019-03-17T11:55:16.940Z,42.57
2019-03-17T11:57:42.905Z,46.40
2019-03-17T12:00:18.860Z,46.57
2019-03-17T12:02:44.838Z,45.77
2019-03-17T12:05:11.098Z,47.17
2019-03-17T12:07:37.264Z,53.53
2019-03-17T12:10:09.617Z,43.83
2019-03-17T12:12:35.448Z,54.40
2019-03-17T12:15:01.614Z,50.83
2019-03-17T12:17:30.978Z,47.03
2019-03-17T12:19:56.994Z,52.67
2019-03-17T12:22:22.870Z,45.38
2019-03-17T12:24:48.725Z,48.85
2019-03-17T12:27:14.573Z,47.87
2019-03-17T12:29:40.530Z,51.27
2019-03-17T12:32:06.521Z,48.97
2019-03-17T12:34:32.460Z,43.63
2019-03-17T12:36:58.305Z,46.53
2019-03-17T12:39:24.374Z,52.00
2019-03-17T12:41:50.214Z,48.93
2019-03-17T12:44:16.054Z,53.53
2019-03-17T12:46:42.027Z,50.50
2019-03-17T12:49:09.627Z,57.03
2019-03-17T12:51:35.552Z,48.33
2019-03-17T12:54:03.493Z,47.07
2019-03-17T12:56:31.645Z,46.33
2019-03-17T12:58:57.816Z,45.20
2019-03-17T13:01:23.794Z,53.30
2019-03-17T13:03:49.741Z,56.23
2019-03-17T13:06:15.856Z,53.37
2019-03-17T13:08:41.929Z,55.73
2019-03-17T13:11:07.881Z,48.83
2019-03-17T13:13:34.001Z,46.60
2019-03-17T13:16:01.210Z,46.23
2019-03-17T13:18:27.120Z,44.57
2019-03-17T13:20:53.196Z,49.60
2019-03-17T13:23:21.646Z,48.33
2019-03-17T13:25:49.788Z,51.07
2019-03-17T13:28:15.758Z,46.60
2019-03-17T13:30:43.616Z,47.27
2019-03-17T13:33:09.704Z,49.40
2019-03-17T13:35:36.886Z,43.73
2019-03-17T13:38:03.071Z,40.87
2019-03-17T13:40:30.211Z,43.63
2019-03-17T13:42:56.328Z,44.63
2019-03-17T13:45:22.348Z,40.93
2019-03-17T13:47:48.424Z,46.03
2019-03-17T13:50:19.606Z,42.70
2019-03-17T13:52:45.690Z,43.43
2019-03-17T13:55:11.610Z,35.83
2019-03-17T13:57:38.153Z,33.78
2019-03-17T14:00:07.906Z,36.10
2019-03-17T14:02:33.766Z,37.45
2019-03-17T14:04:59.730Z,36.45
2019-03-17T14:07:25.715Z,37.00
2019-03-17T14:09:51.577Z,37.90
2019-03-17T14:12:17.442Z,43.13
2019-03-17T14:14:43.419Z,41.17
2019-03-17T14:17:09.252Z,42.20
2019-03-17T14:19:35.074Z,39.97
2019-03-17T14:22:01.051Z,41.67
2019-03-17T14:24:26.936Z,41.13
2019-03-17T14:26:52.771Z,40.63
2019-03-17T14:29:18.619Z,39.73
2019-03-17T14:31:44.491Z,45.63
2019-03-17T14:34:10.426Z,37.10
2019-03-17T14:36:36.468Z,41.37
2019-03-17T14:39:04.825Z,44.27
2019-03-17T14:41:30.921Z,42.87
2019-03-17T14:43:56.737Z,43.47
2019-03-17T14:46:22.679Z,40.77
2019-03-17T14:48:48.534Z,39.43
2019-03-17T14:51:14.357Z,47.83
2019-03-17T14:53:40.262Z,50.73
2019-03-17T14:56:06.244Z,49.03
2019-03-17T14:58:32.082Z,46.90
2019-03-17T15:00:58.003Z,42.10
2019-03-17T15:03:23.846Z,57.77
2019-03-17T15:05:51.626Z,44.23
2019-03-17T15:08:17.503Z,50.80
2019-03-17T15:10:46.830Z,46.30
2019-03-17T15:13:12.677Z,51.03
2019-03-17T15:15:38.532Z,49.40
2019-03-17T15:18:04.357Z,45.37
2019-03-17T15:20:30.208Z,48.03
2019-03-17T15:22:56.168Z,47.77
2019-03-17T15:25:22.037Z,49.53
2019-03-17T15:27:47.961Z,49.23
2019-03-17T15:30:19.811Z,57.23
2019-03-17T15:32:45.748Z,46.90
2019-03-17T15:35:13.419Z,49.90
2019-03-17T15:37:39.634Z,54.60
2019-03-17T15:40:11.000Z,47.73
2019-03-17T15:42:36.899Z,50.87
2019-03-17T15:45:05.727Z,53.67
2019-03-17T15:47:34.554Z,52.13
2019-03-17T15:50:00.638Z,52.30
2019-03-17T15:52:26.492Z,49.73
2019-03-17T15:54:52.322Z,54.23
2019-03-17T15:57:18.153Z,56.50
2019-03-17T15:59:44.061Z,49.17
2019-03-17T16:02:09.961Z,50.57
2019-03-17T16:04:35.806Z,49.40
2019-03-17T16:07:02.114Z,55.43
2019-03-17T16:09:28.722Z,46.97
2019-03-17T16:11:58.449Z,51.40
2019-03-17T16:14:24.286Z,58.20
2019-03-17T16:16:50.281Z,58.03
2019-03-17T16:19:16.206Z,43.50
2019-03-17T16:21:42.092Z,47.57
2019-03-17T16:24:07.997Z,56.10
2019-03-17T16:26:33.829Z,46.83
2019-03-17T16:28:59.767Z,49.97
2019-03-17T16:31:25.597Z,46.47
2019-03-17T16:33:51.544Z,48.33
2019-03-17T16:36:17.372Z,46.27
2019-03-17T16:38:43.218Z,54.73
2019-03-17T16:41:09.092Z,45.57
2019-03-17T16:43:35.133Z,51.83
2019-03-17T16:46:01.223Z,51.13
2019-03-17T16:48:27.056Z,51.93
2019-03-17T16:50:52.894Z,43.87
2019-03-17T16:53:18.839Z,45.13
2019-03-17T16:55:44.693Z,47.97
2019-03-17T16:58:10.622Z,47.47
2019-03-17T17:00:36.710Z,39.77
2019-03-17T17:03:02.796Z,43.73
2019-03-17T17:05:35.046Z,36.03
2019-03-17T17:08:01.256Z,35.83
2019-03-17T17:10:28.229Z,34.57
2019-03-17T17:12:54.322Z,29.97
2019-03-17T17:15:23.333Z,31.53
2019-03-17T17:17:49.642Z,35.30
2019-03-17T17:20:18.120Z,26.90
2019-03-17T17:22:44.196Z,29.63
2019-03-17T17:25:10.729Z,26.33
2019-03-17T17:27:36.585Z,27.93
2019-03-17T17:30:06.083Z,32.07
2019-03-17T17:32:33.456Z,31.60
2019-03-17T17:34:59.306Z,28.43
2019-03-17T17:37:25.199Z,29.03
2019-03-17T17:39:51.036Z,23.87
2019-03-17T17:42:16.874Z,25.20
2019-03-17T17:44:42.823Z,29.50
2019-03-17T17:47:08.719Z,24.33
2019-03-17T17:49:34.656Z,24.00
2019-03-17T17:52:02.592Z,28.97
2019-03-17T17:54:28.355Z,27.20
2019-03-17T17:56:54.648Z,30.53
2019-03-17T17:59:20.468Z,26.63
2019-03-17T18:01:46.313Z,22.73
2019-03-17T18:04:12.269Z,24.47
2019-03-17T18:06:38.290Z,29.43
2019-03-17T18:09:05.730Z,21.87
2019-03-17T18:11:31.637Z,24.90
2019-03-17T18:13:57.521Z,23.23
2019-03-17T18:16:23.465Z,27.40
2019-03-17T18:18:49.358Z,28.03
2019-03-17T18:21:15.200Z,24.63
2019-03-17T18:23:41.061Z,24.23
2019-03-17T18:26:07.134Z,21.97
2019-03-17T18:28:33.110Z,22.50
2019-03-17T18:30:59.155Z,21.23
2019-03-17T18:33:25.152Z,19.90
2019-03-17T18:35:50.998Z,21.80
2019-03-17T18:38:16.896Z,20.53
2019-03-17T18:40:42.785Z,25.90
2019-03-17T18:43:08.748Z,20.07
2019-03-17T18:45:34.695Z,25.33
2019-03-17T18:48:00.773Z,23.00
2019-03-17T18:50:26.818Z,24.90
2019-03-17T18:52:52.758Z,22.07
2019-03-17T18:55:18.849Z,28.73
2019-03-17T18:57:44.905Z,23.80
2019-03-17T19:00:17.869Z,31.03
2019-03-17T19:02:44.037Z,38.60
2019-03-17T19:05:11.974Z,27.67
2019-03-17T19:07:37.936Z,27.43
2019-03-17T19:10:06.664Z,23.50
2019-03-17T19:12:44.622Z,26.10
2019-03-17T19:15:07.723Z,29.13
2019-03-17T19:17:33.683Z,23.97
2019-03-17T19:19:59.824Z,29.17
2019-03-17T19:22:25.642Z,26.90
2019-03-17T19:24:51.620Z,26.47
2019-03-17T19:27:17.574Z,30.37
2019-03-17T19:29:43.421Z,26.13
2019-03-17T19:32:09.391Z,27.03
2019-03-17T19:34:35.314Z,25.93
2019-03-17T19:37:01.183Z,33.17
2019-03-17T19:39:27.198Z,27.32
2019-03-17T19:41:53.150Z,25.50
2019-03-17T19:44:19.013Z,30.60
2019-03-17T19:46:44.856Z,30.27
2019-03-17T19:49:10.940Z,25.70
2019-03-17T19:51:36.893Z,19.20
2019-03-17T19:54:03.060Z,27.20
2019-03-17T19:56:29.917Z,24.80
2019-03-17T19:58:55.745Z,24.97
2019-03-17T20:01:21.578Z,31.30
2019-03-17T20:03:47.447Z,28.20
2019-03-17T20:06:13.287Z,24.17
2019-03-17T20:08:39.233Z,26.13
2019-03-17T20:11:06.642Z,22.00
2019-03-17T20:13:32.493Z,21.73
2019-03-17T20:15:58.365Z,24.87
2019-03-17T20:18:24.197Z,22.20
2019-03-17T20:20:50.440Z,23.03
2019-03-17T20:23:21.314Z,25.87
2019-03-17T20:25:48.012Z,20.10
2019-03-17T20:28:13.798Z,25.07
2019-03-17T20:30:39.764Z,21.03
2019-03-17T20:33:05.596Z,19.13
2019-03-17T20:35:31.543Z,20.03
2019-03-17T20:37:57.540Z,21.37
2019-03-17T20:40:23.616Z,21.90
2019-03-17T20:42:49.561Z,22.23
2019-03-17T20:45:15.657Z,21.60
2019-03-17T20:47:42.015Z,20.67
2019-03-17T20:50:16.159Z,19.80
2019-03-17T20:52:42.236Z,24.27
2019-03-17T20:55:09.542Z,21.87
2019-03-17T20:57:35.770Z,23.57
2019-03-17T21:00:04.565Z,19.00
2019-03-17T21:02:30.619Z,22.93
2019-03-17T21:04:58.054Z,22.30
2019-03-17T21:07:24.141Z,19.17
2019-03-17T21:09:51.418Z,24.73
2019-03-17T21:12:17.920Z,24.80
2019-03-17T21:14:44.035Z,25.83
2019-03-17T21:17:10.094Z,24.23
2019-03-17T21:19:36.215Z,26.70
2019-03-17T21:22:02.273Z,25.17
2019-03-17T21:24:30.255Z,24.80
2019-03-17T21:26:57.337Z,23.10
2019-03-17T21:29:25.222Z,27.27
2019-03-17T21:31:51.162Z,27.77
2019-03-17T21:34:17.091Z,28.17
2019-03-17T21:36:42.928Z,26.03
2019-03-17T21:39:08.872Z,27.83
2019-03-17T21:41:34.867Z,28.87
2019-03-17T21:44:00.821Z,41.70
2019-03-17T21:46:26.659Z,29.33
2019-03-17T21:48:52.549Z,32.20
2019-03-17T21:51:18.360Z,27.50
2019-03-17T21:53:44.183Z,27.90
2019-03-17T21:56:10.064Z,29.33
2019-03-17T21:58:35.896Z,26.33
2019-03-17T22:01:01.744Z,26.27
2019-03-17T22:03:27.634Z,29.87
2019-03-17T22:05:53.570Z,27.87
2019-03-17T22:08:19.409Z,27.17
2019-03-17T22:10:45.300Z,32.10
2019-03-17T22:13:11.118Z,26.13
2019-03-17T22:15:36.947Z,33.07
2019-03-17T22:18:03.130Z,29.27
2019-03-17T22:20:29.059Z,29.03
2019-03-17T22:22:54.900Z,33.60
2019-03-17T22:25:20.839Z,27.23
2019-03-17T22:27:46.690Z,27.53
2019-03-17T22:30:16.356Z,23.83
2019-03-17T22:32:42.317Z,25.93
2019-03-17T22:35:08.903Z,29.27
2019-03-17T22:37:34.997Z,25.83
2019-03-17T22:40:01.094Z,35.87
2019-03-17T22:42:26.988Z,26.33
2019-03-17T22:44:52.863Z,23.53
2019-03-17T22:47:18.826Z,27.80
2019-03-17T22:49:44.742Z,24.10
2019-03-17T22:52:11.079Z,23.10
2019-03-17T22:54:36.933Z,29.33
2019-03-17T22:57:03.696Z,25.80
2019-03-17T22:59:29.621Z,26.07
2019-03-17T23:01:55.436Z,25.33
2019-03-17T23:04:22.245Z,35.30
2019-03-17T23:06:48.359Z,27.37
2019-03-17T23:09:14.359Z,27.73
2019-03-17T23:11:40.210Z,25.37
2019-03-17T23:14:06.297Z,25.00
2019-03-17T23:16:32.195Z,26.33
2019-03-17T23:19:01.792Z,27.77
2019-03-17T23:21:27.658Z,26.00
2019-03-17T23:23:53.490Z,27.30
2019-03-17T23:26:19.373Z,23.90
2019-03-17T23:28:45.296Z,29.80
2019-03-17T23:31:11.233Z,27.20
2019-03-17T23:33:37.176Z,29.50
2019-03-17T23:36:03.148Z,27.67
2019-03-17T23:38:28.988Z,31.20
2019-03-17T23:40:54.865Z,27.20
2019-03-17T23:43:20.679Z,27.40
2019-03-17T23:45:46.537Z,34.43
2019-03-17T23:48:12.526Z,26.63
2019-03-17T23:50:38.378Z,25.37
2019-03-17T23:53:04.204Z,26.17
2019-03-17T23:55:30.252Z,23.33
2019-03-17T23:57:56.223Z,24.27
